sensor_id;sensor_type;location;lat;lon;timestamp;P1;durP1;ratioP1;P2;durP2;ratioP2
18190;SDS011;47004;51.366;12.348;2022-07-26T00:00:16;17.73;;;12.10;;
18190;SDS011;47004;51.366;12.348;2022-07-26T00:02:19;16.53;;;11.70;;
18190;SDS011;47004;51.366;12.348;2022-07-26T00:04:21;16.47;;;11.37;;
18190;SDS011;47004;51.366;12.348;2022-07-26T00:06:23;15.30;;;11.20;;
18190;SDS011;47004;51.366;12.348;2022-07-26T00:08:26;13.70;;;11.07;;
18190;SDS011;47004;51.366;12.348;2022-07-26T00:10:28;15.87;;;11.53;;
18190;SDS011;47004;51.366;12.348;2022-07-26T00:12:30;15.37;;;11.20;;
18190;SDS011;47004;51.366;12.348;2022-07-26T00:14:33;19.40;;;11.87;;
18190;SDS011;47004;51.366;12.348;2022-07-26T00:16:35;16.73;;;12.00;;
18190;SDS011;47004;51.366;12.348;2022-07-26T00:18:40;17.47;;;10.93;;
18190;SDS011;47004;51.366;12.348;2022-07-26T00:20:42;15.93;;;11.37;;
18190;SDS011;47004;51.366;12.348;2022-07-26T00:22:44;16.73;;;12.07;;
18190;SDS011;47004;51.366;12.348;2022-07-26T00:24:46;16.60;;;11.60;;
18190;SDS011;47004;51.366;12.348;2022-07-26T00:26:48;14.43;;;11.33;;
18190;SDS011;47004;51.366;12.348;2022-07-26T00:28:50;13.43;;;10.60;;
18190;SDS011;47004;51.366;12.348;2022-07-26T00:30:53;16.23;;;11.40;;
18190;SDS011;47004;51.366;12.348;2022-07-26T00:32:55;14.70;;;11.20;;
18190;SDS011;47004;51.366;12.348;2022-07-26T00:34:57;15.67;;;11.47;;
18190;SDS011;47004;51.366;12.348;2022-07-26T00:36:59;12.97;;;10.33;;
18190;SDS011;47004;51.366;12.348;2022-07-26T00:39:01;15.97;;;11.57;;
18190;SDS011;47004;51.366;12.348;2022-07-26T00:41:03;16.90;;;12.00;;
18190;SDS011;47004;51.366;12.348;2022-07-26T00:43:05;15.40;;;11.87;;
18190;SDS011;47004;51.366;12.348;2022-07-26T00:45:08;13.13;;;10.53;;
18190;SDS011;47004;51.366;12.348;2022-07-26T00:47:13;14.80;;;10.93;;
18190;SDS011;47004;51.366;12.348;2022-07-26T00:49:15;15.17;;;10.83;;
18190;SDS011;47004;51.366;12.348;2022-07-26T00:51:17;15.87;;;11.40;;
18190;SDS011;47004;51.366;12.348;2022-07-26T00:53:19;16.93;;;11.83;;
18190;SDS011;47004;51.366;12.348;2022-07-26T00:55:22;14.67;;;10.77;;
18190;SDS011;47004;51.366;12.348;2022-07-26T00:57:24;14.63;;;10.43;;
18190;SDS011;47004;51.366;12.348;2022-07-26T00:59:26;13.17;;;10.03;;
18190;SDS011;47004;51.366;12.348;2022-07-26T01:01:28;14.80;;;11.20;;
18190;SDS011;47004;51.366;12.348;2022-07-26T01:03:32;15.37;;;10.90;;
18190;SDS011;47004;51.366;12.348;2022-07-26T01:05:34;15.63;;;11.07;;
18190;SDS011;47004;51.366;12.348;2022-07-26T01:07:36;13.00;;;10.07;;
18190;SDS011;47004;51.366;12.348;2022-07-26T01:09:39;14.20;;;10.90;;
18190;SDS011;47004;51.366;12.348;2022-07-26T01:11:42;12.97;;;10.30;;
18190;SDS011;47004;51.366;12.348;2022-07-26T01:13:45;14.13;;;10.40;;
18190;SDS011;47004;51.366;12.348;2022-07-26T01:15:47;13.30;;;10.27;;
18190;SDS011;47004;51.366;12.348;2022-07-26T01:17:49;15.10;;;11.07;;
18190;SDS011;47004;51.366;12.348;2022-07-26T01:19:52;13.77;;;10.47;;
18190;SDS011;47004;51.366;12.348;2022-07-26T01:21:56;13.17;;;10.00;;
18190;SDS011;47004;51.366;12.348;2022-07-26T01:23:58;14.93;;;11.10;;
18190;SDS011;47004;51.366;12.348;2022-07-26T01:26:00;17.33;;;12.67;;
18190;SDS011;47004;51.366;12.348;2022-07-26T01:28:03;14.57;;;11.70;;
18190;SDS011;47004;51.366;12.348;2022-07-26T01:30:06;13.47;;;11.20;;
18190;SDS011;47004;51.366;12.348;2022-07-26T01:32:09;15.30;;;11.30;;
18190;SDS011;47004;51.366;12.348;2022-07-26T01:34:11;16.60;;;11.57;;
18190;SDS011;47004;51.366;12.348;2022-07-26T01:36:13;15.03;;;10.93;;
18190;SDS011;47004;51.366;12.348;2022-07-26T01:38:16;14.83;;;11.93;;
18190;SDS011;47004;51.366;12.348;2022-07-26T01:40:18;15.07;;;11.30;;
18190;SDS011;47004;51.366;12.348;2022-07-26T01:42:20;16.20;;;11.60;;
18190;SDS011;47004;51.366;12.348;2022-07-26T01:44:22;18.50;;;12.63;;
18190;SDS011;47004;51.366;12.348;2022-07-26T01:46:24;15.67;;;12.23;;
18190;SDS011;47004;51.366;12.348;2022-07-26T01:48:26;17.47;;;12.90;;
18190;SDS011;47004;51.366;12.348;2022-07-26T01:50:28;17.33;;;12.30;;
18190;SDS011;47004;51.366;12.348;2022-07-26T01:52:30;18.67;;;12.63;;
18190;SDS011;47004;51.366;12.348;2022-07-26T01:54:33;20.40;;;13.20;;
18190;SDS011;47004;51.366;12.348;2022-07-26T01:56:35;18.33;;;13.23;;
18190;SDS011;47004;51.366;12.348;2022-07-26T01:58:37;18.43;;;12.70;;
18190;SDS011;47004;51.366;12.348;2022-07-26T02:00:39;14.93;;;11.20;;
18190;SDS011;47004;51.366;12.348;2022-07-26T02:02:41;16.07;;;11.90;;
18190;SDS011;47004;51.366;12.348;2022-07-26T02:04:43;17.47;;;12.00;;
18190;SDS011;47004;51.366;12.348;2022-07-26T02:07:00;16.80;;;11.60;;
18190;SDS011;47004;51.366;12.348;2022-07-26T02:09:02;14.63;;;11.37;;
18190;SDS011;47004;51.366;12.348;2022-07-26T02:11:06;16.00;;;11.47;;
18190;SDS011;47004;51.366;12.348;2022-07-26T02:13:08;16.57;;;12.17;;
18190;SDS011;47004;51.366;12.348;2022-07-26T02:15:10;16.43;;;11.20;;
18190;SDS011;47004;51.366;12.348;2022-07-26T02:17:13;14.60;;;11.03;;
18190;SDS011;47004;51.366;12.348;2022-07-26T02:19:15;17.03;;;11.97;;
18190;SDS011;47004;51.366;12.348;2022-07-26T02:21:17;17.13;;;11.33;;
18190;SDS011;47004;51.366;12.348;2022-07-26T02:23:20;16.87;;;12.30;;
18190;SDS011;47004;51.366;12.348;2022-07-26T02:25:22;19.43;;;12.53;;
18190;SDS011;47004;51.366;12.348;2022-07-26T02:27:25;16.90;;;11.97;;
18190;SDS011;47004;51.366;12.348;2022-07-26T02:29:27;16.43;;;12.30;;
18190;SDS011;47004;51.366;12.348;2022-07-26T02:31:30;17.70;;;12.10;;
18190;SDS011;47004;51.366;12.348;2022-07-26T02:33:32;18.20;;;12.40;;
18190;SDS011;47004;51.366;12.348;2022-07-26T02:35:34;20.43;;;13.30;;
18190;SDS011;47004;51.366;12.348;2022-07-26T02:37:36;20.93;;;13.57;;
18190;SDS011;47004;51.366;12.348;2022-07-26T02:39:39;17.23;;;13.47;;
18190;SDS011;47004;51.366;12.348;2022-07-26T02:41:41;19.43;;;13.03;;
18190;SDS011;47004;51.366;12.348;2022-07-26T02:43:44;16.63;;;13.37;;
18190;SDS011;47004;51.366;12.348;2022-07-26T02:45:46;18.53;;;13.17;;
18190;SDS011;47004;51.366;12.348;2022-07-26T02:47:48;17.07;;;12.77;;
18190;SDS011;47004;51.366;12.348;2022-07-26T02:49:52;19.90;;;14.03;;
18190;SDS011;47004;51.366;12.348;2022-07-26T02:51:54;18.57;;;13.20;;
18190;SDS011;47004;51.366;12.348;2022-07-26T02:53:55;18.90;;;12.90;;
18190;SDS011;47004;51.366;12.348;2022-07-26T02:55:57;20.37;;;14.77;;
18190;SDS011;47004;51.366;12.348;2022-07-26T02:57:59;20.07;;;13.77;;
18190;SDS011;47004;51.366;12.348;2022-07-26T03:00:03;17.73;;;12.70;;
18190;SDS011;47004;51.366;12.348;2022-07-26T03:02:06;23.80;;;15.00;;
18190;SDS011;47004;51.366;12.348;2022-07-26T03:04:08;19.40;;;13.03;;
18190;SDS011;47004;51.366;12.348;2022-07-26T03:06:10;19.17;;;12.77;;
18190;SDS011;47004;51.366;12.348;2022-07-26T03:08:12;17.87;;;11.87;;
18190;SDS011;47004;51.366;12.348;2022-07-26T03:10:14;18.60;;;12.27;;
18190;SDS011;47004;51.366;12.348;2022-07-26T03:12:15;16.27;;;11.77;;
18190;SDS011;47004;51.366;12.348;2022-07-26T03:14:17;17.73;;;11.87;;
18190;SDS011;47004;51.366;12.348;2022-07-26T03:16:21;17.40;;;12.30;;
18190;SDS011;47004;51.366;12.348;2022-07-26T03:18:22;15.90;;;11.80;;
18190;SDS011;47004;51.366;12.348;2022-07-26T03:20:24;16.70;;;11.57;;
18190;SDS011;47004;51.366;12.348;2022-07-26T03:22:26;15.73;;;11.60;;
18190;SDS011;47004;51.366;12.348;2022-07-26T03:24:28;16.27;;;10.60;;
18190;SDS011;47004;51.366;12.348;2022-07-26T03:26:30;18.30;;;12.20;;
18190;SDS011;47004;51.366;12.348;2022-07-26T03:28:32;15.57;;;11.17;;
18190;SDS011;47004;51.366;12.348;2022-07-26T03:30:35;24.13;;;10.97;;
18190;SDS011;47004;51.366;12.348;2022-07-26T03:32:38;15.43;;;11.00;;
18190;SDS011;47004;51.366;12.348;2022-07-26T03:34:40;20.03;;;11.47;;
18190;SDS011;47004;51.366;12.348;2022-07-26T03:36:42;16.77;;;11.27;;
18190;SDS011;47004;51.366;12.348;2022-07-26T03:38:44;15.07;;;11.10;;
18190;SDS011;47004;51.366;12.348;2022-07-26T03:40:45;14.93;;;10.83;;
18190;SDS011;47004;51.366;12.348;2022-07-26T03:42:47;18.10;;;11.33;;
18190;SDS011;47004;51.366;12.348;2022-07-26T03:44:50;14.43;;;11.10;;
18190;SDS011;47004;51.366;12.348;2022-07-26T03:46:52;16.63;;;11.57;;
18190;SDS011;47004;51.366;12.348;2022-07-26T03:48:55;17.47;;;10.93;;
18190;SDS011;47004;51.366;12.348;2022-07-26T03:50:57;17.77;;;10.83;;
18190;SDS011;47004;51.366;12.348;2022-07-26T03:52:59;20.97;;;11.20;;
18190;SDS011;47004;51.366;12.348;2022-07-26T03:55:01;13.20;;;9.80;;
18190;SDS011;47004;51.366;12.348;2022-07-26T03:57:23;16.87;;;10.10;;
18190;SDS011;47004;51.366;12.348;2022-07-26T03:59:24;14.03;;;10.23;;
18190;SDS011;47004;51.366;12.348;2022-07-26T04:01:26;16.07;;;10.43;;
18190;SDS011;47004;51.366;12.348;2022-07-26T04:03:28;13.93;;;9.90;;
18190;SDS011;47004;51.366;12.348;2022-07-26T04:05:32;13.97;;;9.93;;
18190;SDS011;47004;51.366;12.348;2022-07-26T04:07:36;17.83;;;10.60;;
18190;SDS011;47004;51.366;12.348;2022-07-26T04:09:42;16.80;;;10.13;;
18190;SDS011;47004;51.366;12.348;2022-07-26T04:11:43;14.30;;;9.33;;
18190;SDS011;47004;51.366;12.348;2022-07-26T04:13:47;19.50;;;8.90;;
18190;SDS011;47004;51.366;12.348;2022-07-26T04:15:49;14.37;;;9.17;;
18190;SDS011;47004;51.366;12.348;2022-07-26T04:17:51;18.50;;;10.23;;
18190;SDS011;47004;51.366;12.348;2022-07-26T04:19:53;12.67;;;9.37;;
18190;SDS011;47004;51.366;12.348;2022-07-26T04:21:56;19.00;;;9.13;;
18190;SDS011;47004;51.366;12.348;2022-07-26T04:23:58;11.87;;;8.53;;
18190;SDS011;47004;51.366;12.348;2022-07-26T04:26:00;13.77;;;9.17;;
18190;SDS011;47004;51.366;12.348;2022-07-26T04:28:03;14.40;;;9.40;;
18190;SDS011;47004;51.366;12.348;2022-07-26T04:30:06;16.20;;;9.00;;
18190;SDS011;47004;51.366;12.348;2022-07-26T04:32:09;12.33;;;8.93;;
18190;SDS011;47004;51.366;12.348;2022-07-26T04:34:10;17.13;;;9.43;;
18190;SDS011;47004;51.366;12.348;2022-07-26T04:36:12;11.53;;;8.40;;
18190;SDS011;47004;51.366;12.348;2022-07-26T04:38:18;12.83;;;9.17;;
18190;SDS011;47004;51.366;12.348;2022-07-26T04:40:20;11.60;;;8.80;;
18190;SDS011;47004;51.366;12.348;2022-07-26T04:42:23;14.03;;;9.60;;
18190;SDS011;47004;51.366;12.348;2022-07-26T04:44:25;12.43;;;8.60;;
18190;SDS011;47004;51.366;12.348;2022-07-26T04:46:27;12.10;;;9.30;;
18190;SDS011;47004;51.366;12.348;2022-07-26T04:48:29;15.10;;;9.53;;
18190;SDS011;47004;51.366;12.348;2022-07-26T04:50:31;11.63;;;8.87;;
18190;SDS011;47004;51.366;12.348;2022-07-26T04:52:33;12.40;;;9.10;;
18190;SDS011;47004;51.366;12.348;2022-07-26T04:54:36;12.43;;;8.80;;
18190;SDS011;47004;51.366;12.348;2022-07-26T04:56:38;11.67;;;8.57;;
18190;SDS011;47004;51.366;12.348;2022-07-26T04:58:40;14.23;;;8.73;;
18190;SDS011;47004;51.366;12.348;2022-07-26T05:00:42;10.50;;;8.50;;
18190;SDS011;47004;51.366;12.348;2022-07-26T05:02:44;11.47;;;9.00;;
18190;SDS011;47004;51.366;12.348;2022-07-26T05:04:45;12.20;;;9.30;;
18190;SDS011;47004;51.366;12.348;2022-07-26T05:06:47;11.47;;;9.00;;
18190;SDS011;47004;51.366;12.348;2022-07-26T05:08:49;13.03;;;8.30;;
18190;SDS011;47004;51.366;12.348;2022-07-26T05:10:52;11.90;;;9.30;;
18190;SDS011;47004;51.366;12.348;2022-07-26T05:12:54;10.93;;;8.93;;
18190;SDS011;47004;51.366;12.348;2022-07-26T05:14:56;12.00;;;9.43;;
18190;SDS011;47004;51.366;12.348;2022-07-26T05:16:58;11.27;;;8.37;;
18190;SDS011;47004;51.366;12.348;2022-07-26T05:19:00;11.47;;;8.00;;
18190;SDS011;47004;51.366;12.348;2022-07-26T05:21:02;11.60;;;8.00;;
18190;SDS011;47004;51.366;12.348;2022-07-26T05:23:05;10.67;;;7.97;;
18190;SDS011;47004;51.366;12.348;2022-07-26T05:25:07;11.83;;;8.17;;
18190;SDS011;47004;51.366;12.348;2022-07-26T05:27:11;11.57;;;8.10;;
18190;SDS011;47004;51.366;12.348;2022-07-26T05:29:13;10.60;;;8.17;;
18190;SDS011;47004;51.366;12.348;2022-07-26T05:31:15;12.73;;;8.23;;
18190;SDS011;47004;51.366;12.348;2022-07-26T05:33:17;9.77;;;8.13;;
18190;SDS011;47004;51.366;12.348;2022-07-26T05:35:19;14.60;;;7.97;;
18190;SDS011;47004;51.366;12.348;2022-07-26T05:37:21;8.70;;;7.50;;
18190;SDS011;47004;51.366;12.348;2022-07-26T05:39:23;11.40;;;7.10;;
18190;SDS011;47004;51.366;12.348;2022-07-26T05:41:24;11.53;;;6.90;;
18190;SDS011;47004;51.366;12.348;2022-07-26T05:43:28;10.67;;;6.23;;
18190;SDS011;47004;51.366;12.348;2022-07-26T05:45:30;9.67;;;6.43;;
18190;SDS011;47004;51.366;12.348;2022-07-26T05:47:32;18.87;;;6.50;;
18190;SDS011;47004;51.366;12.348;2022-07-26T05:49:34;9.87;;;5.40;;
18190;SDS011;47004;51.366;12.348;2022-07-26T05:51:36;11.00;;;5.73;;
18190;SDS011;47004;51.366;12.348;2022-07-26T05:53:38;6.50;;;4.60;;
18190;SDS011;47004;51.366;12.348;2022-07-26T05:55:40;6.97;;;5.00;;
18190;SDS011;47004;51.366;12.348;2022-07-26T05:57:48;7.47;;;5.07;;
18190;SDS011;47004;51.366;12.348;2022-07-26T05:59:51;9.60;;;5.47;;
18190;SDS011;47004;51.366;12.348;2022-07-26T06:01:53;8.17;;;4.83;;
18190;SDS011;47004;51.366;12.348;2022-07-26T06:03:55;11.47;;;5.00;;
18190;SDS011;47004;51.366;12.348;2022-07-26T06:05:57;8.17;;;5.00;;
18190;SDS011;47004;51.366;12.348;2022-07-26T06:07:59;9.60;;;5.07;;
18190;SDS011;47004;51.366;12.348;2022-07-26T06:10:01;10.83;;;5.10;;
18190;SDS011;47004;51.366;12.348;2022-07-26T06:12:04;7.57;;;4.67;;
18190;SDS011;47004;51.366;12.348;2022-07-26T06:14:06;7.00;;;4.60;;
18190;SDS011;47004;51.366;12.348;2022-07-26T06:16:09;6.50;;;4.57;;
18190;SDS011;47004;51.366;12.348;2022-07-26T06:18:11;7.47;;;4.50;;
18190;SDS011;47004;51.366;12.348;2022-07-26T06:20:14;7.70;;;4.77;;
18190;SDS011;47004;51.366;12.348;2022-07-26T06:22:16;10.50;;;4.63;;
18190;SDS011;47004;51.366;12.348;2022-07-26T06:24:17;8.47;;;4.00;;
18190;SDS011;47004;51.366;12.348;2022-07-26T06:26:19;7.90;;;3.90;;
18190;SDS011;47004;51.366;12.348;2022-07-26T06:28:22;6.00;;;4.10;;
18190;SDS011;47004;51.366;12.348;2022-07-26T06:30:24;10.97;;;4.33;;
18190;SDS011;47004;51.366;12.348;2022-07-26T06:32:28;7.27;;;3.83;;
18190;SDS011;47004;51.366;12.348;2022-07-26T06:34:30;6.13;;;3.77;;
18190;SDS011;47004;51.366;12.348;2022-07-26T06:36:31;4.83;;;3.50;;
18190;SDS011;47004;51.366;12.348;2022-07-26T06:38:33;5.80;;;3.07;;
18190;SDS011;47004;51.366;12.348;2022-07-26T06:40:35;7.33;;;3.37;;
18190;SDS011;47004;51.366;12.348;2022-07-26T06:42:37;7.97;;;3.50;;
18190;SDS011;47004;51.366;12.348;2022-07-26T06:44:39;11.27;;;3.70;;
18190;SDS011;47004;51.366;12.348;2022-07-26T06:46:41;7.40;;;3.57;;
18190;SDS011;47004;51.366;12.348;2022-07-26T06:48:44;7.97;;;3.53;;
18190;SDS011;47004;51.366;12.348;2022-07-26T06:50:46;7.83;;;3.17;;
18190;SDS011;47004;51.366;12.348;2022-07-26T06:52:48;6.50;;;3.10;;
18190;SDS011;47004;51.366;12.348;2022-07-26T06:54:50;5.40;;;2.93;;
18190;SDS011;47004;51.366;12.348;2022-07-26T06:56:52;4.93;;;3.50;;
18190;SDS011;47004;51.366;12.348;2022-07-26T06:58:54;5.70;;;3.23;;
18190;SDS011;47004;51.366;12.348;2022-07-26T07:00:56;7.50;;;3.33;;
18190;SDS011;47004;51.366;12.348;2022-07-26T07:02:58;7.07;;;3.30;;
18190;SDS011;47004;51.366;12.348;2022-07-26T07:05:01;8.60;;;3.50;;
18190;SDS011;47004;51.366;12.348;2022-07-26T07:07:03;6.37;;;2.80;;
18190;SDS011;47004;51.366;12.348;2022-07-26T07:09:05;6.30;;;2.93;;
18190;SDS011;47004;51.366;12.348;2022-07-26T07:11:07;8.27;;;3.00;;
18190;SDS011;47004;51.366;12.348;2022-07-26T07:13:09;8.40;;;2.60;;
18190;SDS011;47004;51.366;12.348;2022-07-26T07:15:11;6.57;;;2.90;;
18190;SDS011;47004;51.366;12.348;2022-07-26T07:17:16;9.10;;;2.70;;
18190;SDS011;47004;51.366;12.348;2022-07-26T07:19:20;8.10;;;3.27;;
18190;SDS011;47004;51.366;12.348;2022-07-26T07:21:23;6.47;;;2.90;;
18190;SDS011;47004;51.366;12.348;2022-07-26T07:23:26;4.73;;;2.73;;
18190;SDS011;47004;51.366;12.348;2022-07-26T07:25:28;4.83;;;2.50;;
18190;SDS011;47004;51.366;12.348;2022-07-26T07:27:33;6.10;;;2.43;;
18190;SDS011;47004;51.366;12.348;2022-07-26T07:29:35;5.83;;;2.30;;
18190;SDS011;47004;51.366;12.348;2022-07-26T07:31:37;8.40;;;2.80;;
18190;SDS011;47004;51.366;12.348;2022-07-26T07:33:40;4.23;;;2.50;;
18190;SDS011;47004;51.366;12.348;2022-07-26T07:35:42;7.17;;;2.50;;
18190;SDS011;47004;51.366;12.348;2022-07-26T07:37:45;6.83;;;2.23;;
18190;SDS011;47004;51.366;12.348;2022-07-26T07:39:47;5.23;;;2.70;;
18190;SDS011;47004;51.366;12.348;2022-07-26T07:41:49;5.60;;;2.13;;
18190;SDS011;47004;51.366;12.348;2022-07-26T07:43:51;4.13;;;1.60;;
18190;SDS011;47004;51.366;12.348;2022-07-26T07:45:53;3.37;;;1.70;;
18190;SDS011;47004;51.366;12.348;2022-07-26T07:47:55;2.43;;;1.70;;
18190;SDS011;47004;51.366;12.348;2022-07-26T07:49:57;5.57;;;2.10;;
18190;SDS011;47004;51.366;12.348;2022-07-26T07:51:59;6.43;;;2.17;;
18190;SDS011;47004;51.366;12.348;2022-07-26T07:54:02;4.13;;;1.97;;
18190;SDS011;47004;51.366;12.348;2022-07-26T07:56:05;3.40;;;1.70;;
18190;SDS011;47004;51.366;12.348;2022-07-26T07:58:07;4.57;;;2.00;;
18190;SDS011;47004;51.366;12.348;2022-07-26T08:00:09;3.63;;;1.80;;
18190;SDS011;47004;51.366;12.348;2022-07-26T08:02:14;4.17;;;1.60;;
18190;SDS011;47004;51.366;12.348;2022-07-26T08:04:16;3.47;;;1.70;;
18190;SDS011;47004;51.366;12.348;2022-07-26T08:06:18;5.33;;;1.40;;
18190;SDS011;47004;51.366;12.348;2022-07-26T08:08:20;2.90;;;1.70;;
18190;SDS011;47004;51.366;12.348;2022-07-26T08:10:23;5.33;;;2.07;;
18190;SDS011;47004;51.366;12.348;2022-07-26T08:12:25;4.37;;;1.73;;
18190;SDS011;47004;51.366;12.348;2022-07-26T08:14:27;3.23;;;1.93;;
18190;SDS011;47004;51.366;12.348;2022-07-26T08:16:29;6.33;;;2.00;;
18190;SDS011;47004;51.366;12.348;2022-07-26T08:18:31;1.60;;;1.30;;
18190;SDS011;47004;51.366;12.348;2022-07-26T08:20:33;4.37;;;1.50;;
18190;SDS011;47004;51.366;12.348;2022-07-26T08:22:35;4.23;;;1.57;;
18190;SDS011;47004;51.366;12.348;2022-07-26T08:24:37;4.57;;;1.60;;
18190;SDS011;47004;51.366;12.348;2022-07-26T08:26:40;2.77;;;1.60;;
18190;SDS011;47004;51.366;12.348;2022-07-26T08:28:42;3.77;;;1.57;;
18190;SDS011;47004;51.366;12.348;2022-07-26T08:30:44;2.93;;;1.40;;
18190;SDS011;47004;51.366;12.348;2022-07-26T08:32:46;4.43;;;1.87;;
18190;SDS011;47004;51.366;12.348;2022-07-26T08:34:48;2.73;;;1.63;;
18190;SDS011;47004;51.366;12.348;2022-07-26T08:36:50;4.43;;;1.70;;
18190;SDS011;47004;51.366;12.348;2022-07-26T08:38:52;2.43;;;1.60;;
18190;SDS011;47004;51.366;12.348;2022-07-26T08:40:54;3.17;;;1.57;;
18190;SDS011;47004;51.366;12.348;2022-07-26T08:42:57;4.33;;;1.73;;
18190;SDS011;47004;51.366;12.348;2022-07-26T08:44:59;4.30;;;1.80;;
18190;SDS011;47004;51.366;12.348;2022-07-26T08:47:02;4.03;;;1.50;;
18190;SDS011;47004;51.366;12.348;2022-07-26T08:49:04;3.77;;;1.63;;
18190;SDS011;47004;51.366;12.348;2022-07-26T08:51:07;3.80;;;2.07;;
18190;SDS011;47004;51.366;12.348;2022-07-26T08:53:10;3.57;;;1.90;;
18190;SDS011;47004;51.366;12.348;2022-07-26T08:55:14;2.27;;;1.63;;
18190;SDS011;47004;51.366;12.348;2022-07-26T08:57:17;5.37;;;1.70;;
18190;SDS011;47004;51.366;12.348;2022-07-26T08:59:20;2.73;;;1.73;;
18190;SDS011;47004;51.366;12.348;2022-07-26T09:01:22;6.97;;;1.73;;
18190;SDS011;47004;51.366;12.348;2022-07-26T09:03:24;3.03;;;1.80;;
18190;SDS011;47004;51.366;12.348;2022-07-26T09:05:27;5.33;;;1.80;;
18190;SDS011;47004;51.366;12.348;2022-07-26T09:07:30;2.63;;;1.80;;
18190;SDS011;47004;51.366;12.348;2022-07-26T09:09:34;2.70;;;2.00;;
18190;SDS011;47004;51.366;12.348;2022-07-26T09:11:38;3.00;;;1.87;;
18190;SDS011;47004;51.366;12.348;2022-07-26T09:13:48;6.93;;;2.00;;
18190;SDS011;47004;51.366;12.348;2022-07-26T09:18:23;2.90;;;2.10;;
18190;SDS011;47004;51.366;12.348;2022-07-26T09:20:27;3.70;;;2.30;;
18190;SDS011;47004;51.366;12.348;2022-07-26T09:22:31;3.80;;;2.27;;
18190;SDS011;47004;51.366;12.348;2022-07-26T09:24:34;5.43;;;2.13;;
18190;SDS011;47004;51.366;12.348;2022-07-26T09:26:37;3.50;;;2.13;;
18190;SDS011;47004;51.366;12.348;2022-07-26T09:28:40;3.77;;;1.90;;
18190;SDS011;47004;51.366;12.348;2022-07-26T09:30:41;5.07;;;2.00;;
18190;SDS011;47004;51.366;12.348;2022-07-26T09:33:01;4.00;;;1.90;;
18190;SDS011;47004;51.366;12.348;2022-07-26T09:35:10;2.53;;;1.97;;
18190;SDS011;47004;51.366;12.348;2022-07-26T09:37:15;2.47;;;1.90;;
18190;SDS011;47004;51.366;12.348;2022-07-26T09:39:18;3.03;;;2.00;;
18190;SDS011;47004;51.366;12.348;2022-07-26T09:41:20;4.43;;;1.80;;
18190;SDS011;47004;51.366;12.348;2022-07-26T09:43:23;2.37;;;1.60;;
18190;SDS011;47004;51.366;12.348;2022-07-26T09:45:36;5.47;;;2.00;;
18190;SDS011;47004;51.366;12.348;2022-07-26T09:47:39;6.37;;;2.27;;
18190;SDS011;47004;51.366;12.348;2022-07-26T09:49:43;4.23;;;1.80;;
18190;SDS011;47004;51.366;12.348;2022-07-26T09:51:45;2.87;;;1.70;;
18190;SDS011;47004;51.366;12.348;2022-07-26T09:53:49;3.60;;;1.70;;
18190;SDS011;47004;51.366;12.348;2022-07-26T09:55:54;2.60;;;1.80;;
18190;SDS011;47004;51.366;12.348;2022-07-26T09:57:56;3.33;;;1.80;;
18190;SDS011;47004;51.366;12.348;2022-07-26T10:00:02;3.23;;;1.60;;
18190;SDS011;47004;51.366;12.348;2022-07-26T10:02:05;3.07;;;1.60;;
18190;SDS011;47004;51.366;12.348;2022-07-26T10:04:07;2.90;;;1.50;;
18190;SDS011;47004;51.366;12.348;2022-07-26T10:06:10;3.17;;;1.53;;
18190;SDS011;47004;51.366;12.348;2022-07-26T10:08:12;3.57;;;1.60;;
18190;SDS011;47004;51.366;12.348;2022-07-26T10:10:17;1.80;;;1.37;;
18190;SDS011;47004;51.366;12.348;2022-07-26T10:12:23;3.23;;;1.60;;
18190;SDS011;47004;51.366;12.348;2022-07-26T10:14:38;3.37;;;1.20;;
18190;SDS011;47004;51.366;12.348;2022-07-26T10:16:44;3.53;;;1.73;;
18190;SDS011;47004;51.366;12.348;2022-07-26T10:18:46;4.83;;;1.60;;
18190;SDS011;47004;51.366;12.348;2022-07-26T10:20:49;4.23;;;1.70;;
18190;SDS011;47004;51.366;12.348;2022-07-26T10:22:53;5.40;;;1.67;;
18190;SDS011;47004;51.366;12.348;2022-07-26T10:24:55;3.03;;;1.83;;
18190;SDS011;47004;51.366;12.348;2022-07-26T10:26:58;2.07;;;1.23;;
18190;SDS011;47004;51.366;12.348;2022-07-26T10:29:23;2.80;;;1.40;;
18190;SDS011;47004;51.366;12.348;2022-07-26T10:31:30;4.87;;;1.60;;
18190;SDS011;47004;51.366;12.348;2022-07-26T10:33:32;1.87;;;1.20;;
18190;SDS011;47004;51.366;12.348;2022-07-26T10:35:42;2.10;;;1.30;;
18190;SDS011;47004;51.366;12.348;2022-07-26T10:37:57;1.63;;;1.40;;
18190;SDS011;47004;51.366;12.348;2022-07-26T10:40:16;1.53;;;1.30;;
18190;SDS011;47004;51.366;12.348;2022-07-26T10:42:21;4.20;;;1.40;;
18190;SDS011;47004;51.366;12.348;2022-07-26T10:44:24;2.60;;;1.60;;
18190;SDS011;47004;51.366;12.348;2022-07-26T10:46:27;1.27;;;1.17;;
18190;SDS011;47004;51.366;12.348;2022-07-26T10:48:29;2.50;;;1.27;;
18190;SDS011;47004;51.366;12.348;2022-07-26T10:50:32;2.30;;;1.20;;
18190;SDS011;47004;51.366;12.348;2022-07-26T10:52:34;3.40;;;1.40;;
18190;SDS011;47004;51.366;12.348;2022-07-26T10:57:12;2.80;;;1.63;;
18190;SDS011;47004;51.366;12.348;2022-07-26T10:59:13;1.60;;;1.17;;
18190;SDS011;47004;51.366;12.348;2022-07-26T11:01:34;1.50;;;1.23;;
18190;SDS011;47004;51.366;12.348;2022-07-26T11:03:37;1.50;;;1.40;;
18190;SDS011;47004;51.366;12.348;2022-07-26T11:05:39;1.33;;;1.23;;
18190;SDS011;47004;51.366;12.348;2022-07-26T11:07:49;2.27;;;1.50;;
18190;SDS011;47004;51.366;12.348;2022-07-26T11:09:54;1.57;;;1.40;;
18190;SDS011;47004;51.366;12.348;2022-07-26T11:11:56;3.60;;;1.67;;
18190;SDS011;47004;51.366;12.348;2022-07-26T11:14:17;2.27;;;1.33;;
18190;SDS011;47004;51.366;12.348;2022-07-26T11:16:19;3.10;;;1.50;;
18190;SDS011;47004;51.366;12.348;2022-07-26T11:18:22;4.03;;;1.77;;
18190;SDS011;47004;51.366;12.348;2022-07-26T11:20:27;1.90;;;1.60;;
18190;SDS011;47004;51.366;12.348;2022-07-26T11:22:29;1.60;;;1.33;;
18190;SDS011;47004;51.366;12.348;2022-07-26T11:24:31;2.10;;;1.60;;
18190;SDS011;47004;51.366;12.348;2022-07-26T11:26:40;3.27;;;1.80;;
18190;SDS011;47004;51.366;12.348;2022-07-26T11:28:54;1.50;;;1.40;;
18190;SDS011;47004;51.366;12.348;2022-07-26T11:30:58;2.03;;;1.40;;
18190;SDS011;47004;51.366;12.348;2022-07-26T11:33:01;2.27;;;1.60;;
18190;SDS011;47004;51.366;12.348;2022-07-26T11:35:03;2.57;;;1.60;;
18190;SDS011;47004;51.366;12.348;2022-07-26T11:37:05;1.97;;;1.47;;
18190;SDS011;47004;51.366;12.348;2022-07-26T11:39:08;2.33;;;1.40;;
18190;SDS011;47004;51.366;12.348;2022-07-26T11:41:12;2.47;;;1.40;;
18190;SDS011;47004;51.366;12.348;2022-07-26T11:43:15;2.57;;;1.57;;
18190;SDS011;47004;51.366;12.348;2022-07-26T11:45:18;2.60;;;1.40;;
18190;SDS011;47004;51.366;12.348;2022-07-26T11:47:21;1.77;;;1.40;;
18190;SDS011;47004;51.366;12.348;2022-07-26T11:49:24;2.93;;;1.53;;
18190;SDS011;47004;51.366;12.348;2022-07-26T11:51:27;2.70;;;1.50;;
18190;SDS011;47004;51.366;12.348;2022-07-26T11:53:33;2.67;;;1.50;;
18190;SDS011;47004;51.366;12.348;2022-07-26T11:55:36;1.67;;;1.27;;
18190;SDS011;47004;51.366;12.348;2022-07-26T11:57:38;2.17;;;1.27;;
18190;SDS011;47004;51.366;12.348;2022-07-26T11:59:40;1.53;;;1.33;;
18190;SDS011;47004;51.366;12.348;2022-07-26T12:01:46;2.40;;;1.60;;
18190;SDS011;47004;51.366;12.348;2022-07-26T12:03:49;3.07;;;1.77;;
18190;SDS011;47004;51.366;12.348;2022-07-26T12:05:59;3.27;;;1.40;;